Terminal Aerodrome Forecast
Issued by NWS

Home | Current Version | Previous Version | Text Only | Print | Product List | Glossary On
Versions: 1 2 3 4 5 6 7 8 9 10 11 12 13 14 15 16 17 18 19 20 21 22 23
000
FTUS44 KLZK 240100 AAA
TAFHOT
TAF AMD
KHOT 240110Z 2401/2424 35009KT P6SM VCTS BKN040CB
      TEMPO 2401/2403 4SM TSRA BR BKN020CB
     FM240300 30005KT P6SM SCT150 SCT250
     FM241200 05004KT P6SM SCT250
      AMD NOT SKED=

USA.gov is the U.S. government's official web portal to all federal, state and local government web resources and services.